createdAt,value
2019-03-06T00:02:17.698Z,8.13
2019-03-06T00:05:04.420Z,6.43
2019-03-06T00:07:49.046Z,9.37
2019-03-06T00:10:33.653Z,8.00
2019-03-06T00:13:18.721Z,4.90
2019-03-06T00:16:03.942Z,5.47
2019-03-06T00:18:48.511Z,5.93
2019-03-06T00:21:33.641Z,7.50
2019-03-06T00:24:18.097Z,6.13
2019-03-06T00:27:03.207Z,6.13
2019-03-06T00:29:48.038Z,6.53
2019-03-06T00:32:32.625Z,7.17
2019-03-06T00:35:25.326Z,5.33
2019-03-06T00:38:10.096Z,6.63
2019-03-06T00:40:56.812Z,8.03
2019-03-06T00:43:41.751Z,5.43
2019-03-06T00:46:26.746Z,7.77
2019-03-06T00:49:11.807Z,8.13
2019-03-06T00:51:56.668Z,5.97
2019-03-06T00:54:41.114Z,5.53
2019-03-06T00:57:25.712Z,5.17
2019-03-06T01:00:26.437Z,6.07
2019-03-06T01:03:11.165Z,6.03
2019-03-06T01:05:55.625Z,4.17
2019-03-06T01:08:40.421Z,4.97
2019-03-06T01:11:25.636Z,6.63
2019-03-06T01:14:10.619Z,5.17
2019-03-06T01:16:55.867Z,5.97
2019-03-06T01:19:40.533Z,5.63
2019-03-06T01:22:25.240Z,6.67
2019-03-06T01:25:20.068Z,4.87
2019-03-06T01:28:04.847Z,4.13
2019-03-06T01:30:49.645Z,4.20
2019-03-06T01:33:38.695Z,6.97
2019-03-06T01:36:25.627Z,4.87
2019-03-06T01:39:12.205Z,6.33
2019-03-06T01:42:01.356Z,5.77
2019-03-06T01:44:47.760Z,4.30
2019-03-06T01:47:32.426Z,4.20
2019-03-06T01:50:16.870Z,5.67
2019-03-06T01:53:01.951Z,5.60
2019-03-06T01:55:46.697Z,9.13
2019-03-06T01:58:31.590Z,4.70
2019-03-06T02:01:16.962Z,6.70
2019-03-06T02:04:02.028Z,7.07
2019-03-06T02:06:47.107Z,5.73
2019-03-06T02:09:32.172Z,5.13
2019-03-06T02:12:17.686Z,5.93
2019-03-06T02:15:04.150Z,7.57
2019-03-06T02:17:48.985Z,8.37
2019-03-06T02:20:34.245Z,5.17
2019-03-06T02:23:19.303Z,7.00
2019-03-06T02:26:04.170Z,8.20
2019-03-06T02:28:48.895Z,7.77
2019-03-06T02:31:33.805Z,6.30
2019-03-06T02:34:18.863Z,7.87
2019-03-06T02:37:04.068Z,6.20
2019-03-06T02:39:49.182Z,7.90
2019-03-06T02:42:33.676Z,8.17
2019-03-06T02:45:19.597Z,7.70
2019-03-06T02:48:04.281Z,6.10
2019-03-06T02:50:49.008Z,6.57
2019-03-06T02:53:33.990Z,7.07
2019-03-06T02:56:19.034Z,8.07
2019-03-06T02:59:17.404Z,7.53
2019-03-06T03:02:04.520Z,8.43
2019-03-06T03:04:53.911Z,9.17
2019-03-06T03:07:39.322Z,8.83
2019-03-06T03:10:24.207Z,8.33
2019-03-06T03:13:09.346Z,9.03
2019-03-06T03:15:53.832Z,8.17
2019-03-06T03:18:38.591Z,7.77
2019-03-06T03:21:26.802Z,7.77
2019-03-06T03:24:09.978Z,9.03
2019-03-06T03:26:55.186Z,7.87
2019-03-06T03:29:39.708Z,9.63
2019-03-06T03:32:24.378Z,7.10
2019-03-06T03:35:09.461Z,10.40
2019-03-06T03:37:54.285Z,8.23
2019-03-06T03:40:38.831Z,10.57
2019-03-06T03:43:23.664Z,9.73
2019-03-06T03:46:08.332Z,10.43
2019-03-06T03:48:52.961Z,12.63
2019-03-06T03:51:37.393Z,16.67
2019-03-06T03:54:21.782Z,13.33
2019-03-06T03:57:06.541Z,13.43
2019-03-06T03:59:51.070Z,13.23
2019-03-06T04:02:36.274Z,12.90
2019-03-06T04:05:21.257Z,13.03
2019-03-06T04:08:06.144Z,13.43
2019-03-06T04:10:50.953Z,16.43
2019-03-06T04:13:35.706Z,12.50
2019-03-06T04:16:20.501Z,12.33
2019-03-06T04:19:05.100Z,12.60
2019-03-06T04:21:49.676Z,12.43
2019-03-06T04:24:34.230Z,11.57
2019-03-06T04:27:18.755Z,13.97
2019-03-06T04:30:07.122Z,16.17
2019-03-06T04:32:52.080Z,13.07
2019-03-06T04:35:36.567Z,14.03
2019-03-06T04:38:21.394Z,12.33
2019-03-06T04:41:06.302Z,15.80
2019-03-06T04:43:50.750Z,16.03
2019-03-06T04:46:35.300Z,12.53
2019-03-06T04:49:19.841Z,13.50
2019-03-06T04:52:04.490Z,13.27
2019-03-06T04:54:49.164Z,14.10
2019-03-06T04:57:33.725Z,12.73
2019-03-06T05:00:23.257Z,12.77
2019-03-06T05:03:08.509Z,17.30
2019-03-06T05:05:53.645Z,16.47
2019-03-06T05:08:38.277Z,16.30
2019-03-06T05:11:22.815Z,16.90
2019-03-06T05:14:07.257Z,18.20
2019-03-06T05:16:56.525Z,18.43
2019-03-06T05:19:41.829Z,18.93
2019-03-06T05:22:26.196Z,18.50
2019-03-06T05:25:10.987Z,17.10
2019-03-06T05:27:55.509Z,19.43
2019-03-06T05:30:40.107Z,20.93
2019-03-06T05:33:25.048Z,20.97
2019-03-06T05:36:31.417Z,21.87
2019-03-06T05:39:16.481Z,24.23
2019-03-06T05:42:01.059Z,24.33
2019-03-06T05:44:45.595Z,29.10
2019-03-06T05:47:30.114Z,26.50
2019-03-06T05:50:15.186Z,29.60
2019-03-06T05:53:00.298Z,28.50
2019-03-06T05:55:45.054Z,29.37
2019-03-06T05:58:29.906Z,28.27
2019-03-06T06:01:14.466Z,29.03
2019-03-06T06:03:59.082Z,31.53
2019-03-06T06:06:44.093Z,31.67
2019-03-06T06:09:28.589Z,31.33
2019-03-06T06:12:13.159Z,34.43
2019-03-06T06:14:58.084Z,32.47
2019-03-06T06:17:43.259Z,32.13
2019-03-06T06:20:28.271Z,30.97
2019-03-06T06:23:31.985Z,29.97
2019-03-06T06:26:16.495Z,28.50
2019-03-06T06:29:00.981Z,27.93
2019-03-06T06:31:45.588Z,30.17
2019-03-06T06:34:30.648Z,26.33
2019-03-06T06:37:15.276Z,27.47
2019-03-06T06:39:59.602Z,29.33
2019-03-06T06:42:44.546Z,29.33
2019-03-06T06:45:28.921Z,31.50
2019-03-06T06:48:15.855Z,30.40
2019-03-06T06:51:24.849Z,33.30
2019-03-06T06:54:13.326Z,29.10
2019-03-06T06:57:05.014Z,30.00
2019-03-06T07:00:08.629Z,31.27
2019-03-06T07:03:26.180Z,30.97
2019-03-06T07:06:15.604Z,30.77
2019-03-06T07:09:07.598Z,31.53
2019-03-06T07:11:59.560Z,31.40
2019-03-06T07:14:54.633Z,29.47
2019-03-06T07:17:43.829Z,28.13
2019-03-06T07:20:43.971Z,26.10
2019-03-06T07:23:30.432Z,25.77
2019-03-06T07:26:33.490Z,27.57
2019-03-06T07:29:36.152Z,25.77
2019-03-06T07:32:22.739Z,25.47
2019-03-06T07:35:44.800Z,23.37
2019-03-06T07:38:29.726Z,23.90
2019-03-06T07:41:16.228Z,23.83
2019-03-06T07:44:05.492Z,22.73
2019-03-06T07:46:51.845Z,22.00
2019-03-06T07:49:45.709Z,21.63
2019-03-06T07:52:41.180Z,20.63
2019-03-06T07:55:27.753Z,19.23
2019-03-06T07:58:41.935Z,20.07
2019-03-06T08:01:29.562Z,20.37
2019-03-06T08:04:14.772Z,18.33
2019-03-06T08:07:04.190Z,17.60
2019-03-06T08:09:48.935Z,17.73
2019-03-06T08:12:38.334Z,16.17
2019-03-06T08:15:25.432Z,17.30
2019-03-06T08:18:21.066Z,16.83
2019-03-06T08:21:07.529Z,19.47
2019-03-06T08:24:10.246Z,18.13
2019-03-06T08:26:55.576Z,18.67
2019-03-06T08:29:40.263Z,16.53
2019-03-06T08:32:26.734Z,16.73
2019-03-06T08:35:11.397Z,16.13
2019-03-06T08:37:55.989Z,15.87
2019-03-06T08:40:41.208Z,14.73
2019-03-06T08:43:26.238Z,16.57
2019-03-06T08:46:16.006Z,13.00
2019-03-06T08:49:07.997Z,14.70
2019-03-06T08:52:06.112Z,13.07
2019-03-06T08:54:53.138Z,12.37
2019-03-06T08:57:48.354Z,11.23
2019-03-06T09:00:51.235Z,12.97
2019-03-06T09:03:43.320Z,12.67
2019-03-06T09:06:47.741Z,13.53
2019-03-06T09:09:39.946Z,11.23
2019-03-06T09:12:29.855Z,12.07
2019-03-06T09:15:31.767Z,12.40
2019-03-06T09:18:29.995Z,11.13
2019-03-06T09:21:19.348Z,9.70
2019-03-06T09:24:15.115Z,10.87
2019-03-06T09:27:04.248Z,9.00
2019-03-06T09:29:53.456Z,10.03
2019-03-06T09:32:58.123Z,10.83
2019-03-06T09:35:53.519Z,8.60
2019-03-06T09:38:40.332Z,10.27
2019-03-06T09:41:27.495Z,6.97
2019-03-06T09:44:14.240Z,8.47
2019-03-06T09:47:16.985Z,9.83
2019-03-06T09:50:06.669Z,8.27
2019-03-06T09:52:53.274Z,9.43
2019-03-06T09:55:56.161Z,9.60
2019-03-06T09:58:45.803Z,9.30
2019-03-06T10:01:34.859Z,8.43
2019-03-06T10:04:24.074Z,7.37
2019-03-06T10:07:19.754Z,8.63
2019-03-06T10:10:08.928Z,8.67
2019-03-06T10:12:58.408Z,7.70
2019-03-06T10:15:45.506Z,7.53
2019-03-06T10:18:38.234Z,8.63
2019-03-06T10:21:22.867Z,4.77
2019-03-06T10:24:08.025Z,8.77
2019-03-06T10:26:55.290Z,6.33
2019-03-06T10:29:40.148Z,6.03
2019-03-06T10:32:25.457Z,6.80
2019-03-06T10:35:13.052Z,6.70
2019-03-06T10:37:58.169Z,8.70
2019-03-06T10:40:43.275Z,7.17
2019-03-06T10:43:28.607Z,5.17
2019-03-06T10:46:13.519Z,6.83
2019-03-06T10:48:58.668Z,5.80
2019-03-06T10:51:43.895Z,4.10
2019-03-06T10:54:28.934Z,5.67
2019-03-06T10:57:13.939Z,4.63
2019-03-06T10:59:58.899Z,4.07
2019-03-06T11:02:44.083Z,6.07
2019-03-06T11:05:33.640Z,5.33
2019-03-06T11:08:19.662Z,4.87
2019-03-06T11:11:04.968Z,5.67
2019-03-06T11:13:50.009Z,3.53
2019-03-06T11:16:37.216Z,3.93
2019-03-06T11:19:21.675Z,4.30
2019-03-06T11:22:06.358Z,5.13
2019-03-06T11:24:51.368Z,3.60
2019-03-06T11:27:36.422Z,5.53
2019-03-06T11:30:27.701Z,4.63
2019-03-06T11:33:12.896Z,4.20
2019-03-06T11:35:58.464Z,3.60
2019-03-06T11:38:44.374Z,4.03
2019-03-06T11:41:29.539Z,4.97
2019-03-06T11:44:14.663Z,4.53
2019-03-06T11:46:59.570Z,5.80
2019-03-06T11:49:44.928Z,3.70
2019-03-06T11:52:29.744Z,3.70
2019-03-06T11:55:15.494Z,5.87
2019-03-06T11:58:00.702Z,4.83
2019-03-06T12:00:46.569Z,5.78
2019-03-06T12:03:31.249Z,4.43
2019-03-06T12:06:16.300Z,2.75
2019-03-06T12:09:02.164Z,2.85
2019-03-06T12:11:47.383Z,4.30
2019-03-06T12:14:32.079Z,2.65
2019-03-06T12:17:17.519Z,4.58
2019-03-06T12:20:08.170Z,5.12
2019-03-06T12:22:51.809Z,3.90
2019-03-06T12:25:38.572Z,4.83
2019-03-06T12:28:23.541Z,5.25
2019-03-06T12:31:08.562Z,4.45
2019-03-06T12:33:53.210Z,3.62
2019-03-06T12:36:38.362Z,4.00
2019-03-06T12:39:23.464Z,3.90
2019-03-06T12:42:14.261Z,4.35
2019-03-06T12:44:54.964Z,2.62
2019-03-06T12:47:40.398Z,2.92
2019-03-06T12:50:31.838Z,2.72
2019-03-06T12:53:17.013Z,2.98
2019-03-06T12:56:02.355Z,3.52
2019-03-06T12:58:47.308Z,3.30
2019-03-06T13:01:32.602Z,3.70
2019-03-06T13:04:17.615Z,4.17
2019-03-06T13:07:02.173Z,4.33
2019-03-06T13:09:47.243Z,4.17
2019-03-06T13:12:32.395Z,2.90
2019-03-06T13:15:22.674Z,2.62
2019-03-06T13:18:07.624Z,3.02
2019-03-06T13:20:52.774Z,3.72
2019-03-06T13:23:37.922Z,3.27
2019-03-06T13:26:22.926Z,4.15
2019-03-06T13:29:08.062Z,4.28
2019-03-06T13:31:53.089Z,3.02
2019-03-06T13:34:38.302Z,3.67
2019-03-06T13:37:23.133Z,2.90
2019-03-06T13:40:07.843Z,4.33
2019-03-06T13:42:52.880Z,4.10
2019-03-06T13:45:38.024Z,4.53
2019-03-06T13:48:23.058Z,3.25
2019-03-06T13:51:08.323Z,6.62
2019-03-06T13:53:53.319Z,3.00
2019-03-06T13:56:38.585Z,3.43
2019-03-06T13:59:23.309Z,3.47
2019-03-06T14:02:08.210Z,3.63
2019-03-06T14:04:53.242Z,2.10
2019-03-06T14:07:38.358Z,3.97
2019-03-06T14:10:24.323Z,2.03
2019-03-06T14:13:09.883Z,3.37
2019-03-06T14:15:54.884Z,3.60
2019-03-06T14:18:40.084Z,2.90
2019-03-06T14:21:24.938Z,3.23
2019-03-06T14:24:09.918Z,4.45
2019-03-06T14:26:58.237Z,2.67
2019-03-06T14:29:43.245Z,3.27
2019-03-06T14:32:28.366Z,4.20
2019-03-06T14:35:13.575Z,4.20
2019-03-06T14:37:58.795Z,3.87
2019-03-06T14:40:44.920Z,4.80
2019-03-06T14:43:30.009Z,3.80
2019-03-06T14:46:16.766Z,4.50
2019-03-06T14:49:01.798Z,3.83
2019-03-06T14:51:46.810Z,3.57
2019-03-06T14:54:31.995Z,4.83
2019-03-06T14:57:17.069Z,4.53
2019-03-06T15:00:03.473Z,2.37
2019-03-06T15:02:48.242Z,3.43
2019-03-06T15:05:33.469Z,5.13
2019-03-06T15:08:18.292Z,3.93
2019-03-06T15:11:03.566Z,3.40
2019-03-06T15:13:48.619Z,3.47
2019-03-06T15:16:33.633Z,4.20
2019-03-06T15:19:18.223Z,3.13
2019-03-06T15:22:03.341Z,4.63
2019-03-06T15:24:48.211Z,4.50
2019-03-06T15:27:33.592Z,2.53
2019-03-06T15:30:18.619Z,3.05
2019-03-06T15:33:03.775Z,3.77
2019-03-06T15:35:48.940Z,5.43
2019-03-06T15:38:34.055Z,3.43
2019-03-06T15:41:21.340Z,2.90
2019-03-06T15:44:06.325Z,3.10
2019-03-06T15:46:51.333Z,2.83
2019-03-06T15:49:36.456Z,2.83
2019-03-06T15:52:20.988Z,4.30
2019-03-06T15:55:09.702Z,2.77
2019-03-06T15:57:54.868Z,4.93
2019-03-06T16:00:46.184Z,6.67
2019-03-06T16:03:26.394Z,3.30
2019-03-06T16:06:20.132Z,1.90
2019-03-06T16:08:58.548Z,4.80
2019-03-06T16:11:43.585Z,4.13
2019-03-06T16:14:28.657Z,3.20
2019-03-06T16:17:13.727Z,4.73
2019-03-06T16:19:59.024Z,3.80
2019-03-06T16:22:44.179Z,2.83
2019-03-06T16:25:36.425Z,3.20
2019-03-06T16:28:15.205Z,3.53
2019-03-06T16:31:00.184Z,3.10
2019-03-06T16:33:45.129Z,5.40
2019-03-06T16:36:30.248Z,4.80
2019-03-06T16:39:15.250Z,5.30
2019-03-06T16:42:00.455Z,4.37
2019-03-06T16:44:45.682Z,3.03
2019-03-06T16:47:30.416Z,3.37
2019-03-06T16:50:17.485Z,2.95
2019-03-06T16:53:02.414Z,2.33
2019-03-06T16:55:47.426Z,2.80
2019-03-06T16:58:32.398Z,4.17
2019-03-06T17:01:17.644Z,4.80
2019-03-06T17:04:04.570Z,3.00
2019-03-06T17:06:49.772Z,3.60
2019-03-06T17:09:34.800Z,3.70
2019-03-06T17:12:19.925Z,5.53
2019-03-06T17:15:07.051Z,10.93
2019-03-06T17:17:52.233Z,4.60
2019-03-06T17:20:37.255Z,2.50
2019-03-06T17:23:22.159Z,3.80
2019-03-06T17:26:07.259Z,3.43
2019-03-06T17:28:52.148Z,7.87
2019-03-06T17:31:36.914Z,6.63
2019-03-06T17:34:22.184Z,2.10
2019-03-06T17:37:07.122Z,6.80
2019-03-06T17:39:52.012Z,2.60
2019-03-06T17:42:37.246Z,2.67
2019-03-06T17:45:22.328Z,3.67
2019-03-06T17:48:08.586Z,5.20
2019-03-06T17:50:53.566Z,4.23
2019-03-06T17:53:38.558Z,2.37
2019-03-06T17:56:23.848Z,2.73
2019-03-06T17:59:08.869Z,4.33
2019-03-06T18:01:54.169Z,3.37
2019-03-06T18:04:39.101Z,4.43
2019-03-06T18:07:24.349Z,2.93
2019-03-06T18:10:16.630Z,2.67
2019-03-06T18:13:01.519Z,2.00
2019-03-06T18:15:46.352Z,4.23
2019-03-06T18:18:31.848Z,2.17
2019-03-06T18:21:16.794Z,2.63
2019-03-06T18:24:01.814Z,2.93
2019-03-06T18:26:46.734Z,4.00
2019-03-06T18:29:31.964Z,6.40
2019-03-06T18:32:17.013Z,2.10
2019-03-06T18:35:01.999Z,2.53
2019-03-06T18:37:47.201Z,2.73
2019-03-06T18:40:32.182Z,2.90
2019-03-06T18:43:17.401Z,5.43
2019-03-06T18:46:02.274Z,4.13
2019-03-06T18:48:47.535Z,3.00
2019-03-06T18:51:32.777Z,2.67
2019-03-06T18:54:17.836Z,3.30
2019-03-06T18:57:02.713Z,7.00
2019-03-06T18:59:47.842Z,2.77
2019-03-06T19:02:33.022Z,2.77
2019-03-06T19:05:19.456Z,3.30
2019-03-06T19:08:04.274Z,3.53
2019-03-06T19:10:49.639Z,3.00
2019-03-06T19:13:34.790Z,3.27
2019-03-06T19:16:19.945Z,3.60
2019-03-06T19:19:04.996Z,5.37
2019-03-06T19:21:50.098Z,2.97
2019-03-06T19:24:35.240Z,5.67
2019-03-06T19:27:20.267Z,3.77
2019-03-06T19:30:11.948Z,2.70
2019-03-06T19:32:56.718Z,4.63
2019-03-06T19:35:41.766Z,5.47
2019-03-06T19:38:27.301Z,4.93
2019-03-06T19:41:11.937Z,3.20
2019-03-06T19:43:56.965Z,3.53
2019-03-06T19:46:42.148Z,3.93
2019-03-06T19:49:27.782Z,3.70
2019-03-06T19:52:13.228Z,3.80
2019-03-06T19:54:58.262Z,3.47
2019-03-06T19:57:53.082Z,3.73
2019-03-06T20:00:38.742Z,2.53
2019-03-06T20:03:23.823Z,3.93
2019-03-06T20:06:08.833Z,2.87
2019-03-06T20:08:53.805Z,3.43
2019-03-06T20:11:38.825Z,3.20
2019-03-06T20:14:23.915Z,3.73
2019-03-06T20:17:08.987Z,4.13
2019-03-06T20:19:54.260Z,3.20
2019-03-06T20:22:39.591Z,4.47
2019-03-06T20:25:24.367Z,3.77
2019-03-06T20:28:09.574Z,3.40
2019-03-06T20:30:54.692Z,4.07
2019-03-06T20:33:40.308Z,4.37
2019-03-06T20:36:25.133Z,3.17
2019-03-06T20:39:10.757Z,3.77
2019-03-06T20:41:55.869Z,3.67
2019-03-06T20:44:41.350Z,6.13
2019-03-06T20:47:26.695Z,4.07
2019-03-06T20:50:13.686Z,4.93
2019-03-06T20:52:58.985Z,4.30
2019-03-06T20:55:43.941Z,3.93
2019-03-06T20:58:29.063Z,3.93
2019-03-06T21:01:14.183Z,5.23
2019-03-06T21:03:59.362Z,4.20
2019-03-06T21:06:44.417Z,4.10
2019-03-06T21:09:29.377Z,3.67
2019-03-06T21:12:14.679Z,5.50
2019-03-06T21:14:59.629Z,3.70
2019-03-06T21:17:44.897Z,3.03
2019-03-06T21:20:30.016Z,3.60
2019-03-06T21:23:14.950Z,3.27
2019-03-06T21:26:00.012Z,3.43
2019-03-06T21:28:44.939Z,4.20
2019-03-06T21:31:30.295Z,3.30
2019-03-06T21:34:15.285Z,3.43
2019-03-06T21:37:00.562Z,4.37
2019-03-06T21:39:45.373Z,3.77
2019-03-06T21:42:30.520Z,3.50
2019-03-06T21:45:15.784Z,4.43
2019-03-06T21:48:00.582Z,3.53
2019-03-06T21:50:45.445Z,5.03
2019-03-06T21:53:30.133Z,4.93
2019-03-06T21:56:15.062Z,5.70
2019-03-06T21:58:59.835Z,5.60
2019-03-06T22:01:44.583Z,5.70
2019-03-06T22:04:29.599Z,4.63
2019-03-06T22:07:14.729Z,4.67
2019-03-06T22:09:59.522Z,3.13
2019-03-06T22:12:44.153Z,5.10
2019-03-06T22:15:29.382Z,4.67
2019-03-06T22:18:14.051Z,7.53
2019-03-06T22:20:59.474Z,4.97
2019-03-06T22:23:44.342Z,5.07
2019-03-06T22:26:29.493Z,4.43
2019-03-06T22:29:14.538Z,5.43
2019-03-06T22:31:59.565Z,4.17
2019-03-06T22:34:44.000Z,4.00
2019-03-06T22:37:28.644Z,4.87
2019-03-06T22:40:17.806Z,3.97
2019-03-06T22:43:02.802Z,3.30
2019-03-06T22:45:47.487Z,4.23
2019-03-06T22:48:32.757Z,4.77
2019-03-06T22:51:17.814Z,4.43
2019-03-06T22:54:02.796Z,5.27
2019-03-06T22:56:47.733Z,4.03
2019-03-06T22:59:32.772Z,6.67
2019-03-06T23:02:20.279Z,4.77
2019-03-06T23:05:06.380Z,4.07
2019-03-06T23:07:51.654Z,4.07
2019-03-06T23:10:36.507Z,5.37
2019-03-06T23:13:21.074Z,5.03
2019-03-06T23:16:05.757Z,4.43
2019-03-06T23:18:50.820Z,5.23
2019-03-06T23:21:35.859Z,5.23
2019-03-06T23:24:20.738Z,5.63
2019-03-06T23:27:05.673Z,5.40
2019-03-06T23:29:50.257Z,4.63
2019-03-06T23:32:35.312Z,4.50
2019-03-06T23:35:20.537Z,4.57
2019-03-06T23:38:05.533Z,4.63
2019-03-06T23:40:50.223Z,5.00
2019-03-06T23:43:35.654Z,4.60
2019-03-06T23:46:20.348Z,4.10
2019-03-06T23:49:05.331Z,4.77
2019-03-06T23:51:52.019Z,6.30
2019-03-06T23:54:36.903Z,4.17
2019-03-06T23:57:22.036Z,4.93
